Map

Track Data

SID SEASON NUMBER BASIN SUBBASIN NAME ISO_TIME NATURE LAT LON WMO_WIND WMO_PRES WMO_AGENCY TRACK_TYPE DIST2LAND LANDFALL IFLAG USA_AGENCY USA_ATCF_ID USA_LAT USA_LON USA_RECORD USA_STATUS USA_WIND USA_PRES USA_SSHS USA_R34_NE USA_R34_SE USA_R34_SW USA_R34_NW USA_R50_NE USA_R50_SE USA_R50_SW USA_R50_NW USA_R64_NE USA_R64_SE USA_R64_SW USA_R64_NW USA_POCI USA_ROCI USA_RMW USA_EYE TOKYO_LAT TOKYO_LON TOKYO_GRADE TOKYO_WIND TOKYO_PRES TOKYO_R50_DIR TOKYO_R50_LONG TOKYO_R50_SHORT TOKYO_R30_DIR TOKYO_R30_LONG TOKYO_R30_SHORT TOKYO_LAND CMA_LAT CMA_LON CMA_CAT CMA_WIND CMA_PRES HKO_LAT HKO_LON HKO_CAT HKO_WIND HKO_PRES NEWDELHI_LAT NEWDELHI_LON NEWDELHI_GRADE NEWDELHI_WIND NEWDELHI_PRES NEWDELHI_CI NEWDELHI_DP NEWDELHI_POCI REUNION_LAT REUNION_LON REUNION_TYPE REUNION_WIND REUNION_PRES REUNION_TNUM REUNION_CI REUNION_RMW REUNION_R34_NE REUNION_R34_SE REUNION_R34_SW REUNION_R34_NW REUNION_R50_NE REUNION_R50_SE REUNION_R50_SW REUNION_R50_NW REUNION_R64_NE REUNION_R64_SE REUNION_R64_SW REUNION_R64_NW BOM_LAT BOM_LON BOM_TYPE BOM_WIND BOM_PRES BOM_TNUM BOM_CI BOM_RMW BOM_R34_NE BOM_R34_SE BOM_R34_SW BOM_R34_NW BOM_R50_NE BOM_R50_SE BOM_R50_SW BOM_R50_NW BOM_R64_NE BOM_R64_SE BOM_R64_SW BOM_R64_NW BOM_ROCI BOM_POCI BOM_EYE BOM_POS_METHOD BOM_PRES_METHOD NADI_LAT NADI_LON NADI_CAT NADI_WIND NADI_PRES WELLINGTON_LAT WELLINGTON_LON WELLINGTON_WIND WELLINGTON_PRES DS824_LAT DS824_LON DS824_STAGE DS824_WIND DS824_PRES TD9636_LAT TD9636_LON TD9636_STAGE TD9636_WIND TD9636_PRES TD9635_LAT TD9635_LON TD9635_WIND TD9635_PRES TD9635_ROCI NEUMANN_LAT NEUMANN_LON NEUMANN_CLASS NEUMANN_WIND NEUMANN_PRES MLC_LAT MLC_LON MLC_CLASS MLC_WIND MLC_PRES USA_GUST BOM_GUST BOM_GUST_PER REUNION_GUST REUNION_GUST_PER USA_SEAHGT USA_SEARAD_NE USA_SEARAD_SE USA_SEARAD_SW USA_SEARAD_NW STORM_SPEED STORM_DIR
1971249N26289 1971 110 NA NA GINGER 1971-09-06 00:00:00 TS 25.5000 -71.5000 25 hurdat_atl main 504 490 O_____________ hurdat_atl AL141971 25.5000 -71.5000 TD 25 -1 4 139
1971249N26289 1971 110 NA NA GINGER 1971-09-06 03:00:00 TS 25.3400 -71.3399 main 490 483 P_____________ AL141971 25.3400 -71.3399 TD 25 -1 4 138
1971249N26289 1971 110 NA NA GINGER 1971-09-06 06:00:00 TS 25.2000 -71.2000 25 hurdat_atl main 483 477 O_____________ hurdat_atl AL141971 25.2000 -71.2000 TD 25 -1 3 138
1971249N26289 1971 110 NA NA GINGER 1971-09-06 09:00:00 TS 25.0925 -71.0926 main 477 471 P_____________ AL141971 25.0925 -71.0926 TD 25 -1 3 138
1971249N26289 1971 110 NA NA GINGER 1971-09-06 12:00:00 TS 25.0000 -71.0000 25 hurdat_atl main 471 465 O_____________ hurdat_atl AL141971 25.0000 -71.0000 TD 25 -1 3 139
1971249N26289 1971 110 NA NA GINGER 1971-09-06 15:00:00 TS 24.9000 -70.9075 main 465 456 P_____________ AL141971 24.9000 -70.9075 TD 25 -1 3 138
1971249N26289 1971 110 NA NA GINGER 1971-09-06 18:00:00 TS 24.8000 -70.8000 25 hurdat_atl main 461 456 O_____________ hurdat_atl AL141971 24.8000 -70.8000 TD 25 -1 3 130
1971249N26289 1971 110 NA NA GINGER 1971-09-06 21:00:00 TS 24.7000 -70.6500 main 461 452 P_____________ AL141971 24.7000 -70.6500 TD 25 -1 3 126
1971249N26289 1971 110 NA NA GINGER 1971-09-07 00:00:00 TS 24.6000 -70.5000 25 hurdat_atl main 458 449 O_____________ hurdat_atl AL141971 24.6000 -70.5000 TD 25 -1 3 133
1971249N26289 1971 110 NA NA GINGER 1971-09-07 03:00:00 TS 24.4924 -70.4075 main 454 445 P_____________ AL141971 24.4924 -70.4075 TD 25 -1 3 138
1971249N26289 1971 110 NA NA GINGER 1971-09-07 06:00:00 TS 24.4000 -70.3000 25 hurdat_atl main 452 449 O_____________ hurdat_atl AL141971 24.4000 -70.3000 TD 25 -1 3 127
1971249N26289 1971 110 NA NA GINGER 1971-09-07 09:00:00 TS 24.3050 -70.1298 main 456 456 P_____________ AL141971 24.3050 -70.1298 TD 25 -1 4 105
1971249N26289 1971 110 NA NA GINGER 1971-09-07 12:00:00 TS 24.3000 -69.9000 25 hurdat_atl main 470 470 O_____________ hurdat_atl AL141971 24.3000 -69.9000 TD 25 -1 5 72
1971249N26289 1971 110 NA NA GINGER 1971-09-07 15:00:00 TS 24.4551 -69.6077 main 507 507 P_____________ AL141971 24.4551 -69.6077 TD 25 -1 7 54
1971249N26289 1971 110 NA NA GINGER 1971-09-07 18:00:00 TS 24.7000 -69.3000 25 hurdat_atl main 544 544 O_____________ hurdat_atl AL141971 24.7000 -69.3000 TD 25 -1 7 46
1971249N26289 1971 110 NA NA GINGER 1971-09-07 21:00:00 TS 24.9575 -69.0276 main 589 589 P_____________ AL141971 24.9575 -69.0276 TD 25 -1 7 42
1971249N26289 1971 110 NA NA GINGER 1971-09-08 00:00:00 TS 25.2000 -68.8000 25 hurdat_atl main 619 619 O_____________ hurdat_atl AL141971 25.2000 -68.8000 TD 25 -1 5 42
1971249N26289 1971 110 NA NA GINGER 1971-09-08 03:00:00 TS 25.3574 -68.6348 main 649 649 P_____________ AL141971 25.3574 -68.6348 TD 25 -1 4 42
1971249N26289 1971 110 NA NA GINGER 1971-09-08 06:00:00 TS 25.5000 -68.5000 25 hurdat_atl main 664 664 O_____________ hurdat_atl AL141971 25.5000 -68.5000 TD 25 -1 4 38
1971249N26289 1971 110 NA NA GINGER 1971-09-08 09:00:00 TS 25.6925 -68.3425 main 694 694 P_____________ AL141971 25.6925 -68.3425 TD 25 -1 5 34
1971249N26289 1971 110 NA NA GINGER 1971-09-08 12:00:00 TS 25.9000 -68.2000 25 hurdat_atl main 717 717 O_____________ hurdat_atl AL141971 25.9000 -68.2000 TD 25 -1 5 29
1971249N26289 1971 110 NA NA GINGER 1971-09-08 15:00:00 TS 26.1075 -68.0850 main 740 740 P_____________ AL141971 26.1075 -68.0850 TD 25 -1 4 24
1971249N26289 1971 110 NA NA GINGER 1971-09-08 18:00:00 TS 26.3000 -68.0000 25 hurdat_atl main 763 763 O_____________ hurdat_atl AL141971 26.3000 -68.0000 TD 25 -1 4 19
1971249N26289 1971 110 NA NA GINGER 1971-09-08 21:00:00 TS 26.4650 -67.9499 main 786 786 P_____________ AL141971 26.4650 -67.9499 TD 25 -1 3 16
1971249N26289 1971 110 NA NA GINGER 1971-09-09 00:00:00 TS 26.6000 -67.9000 25 hurdat_atl main 795 795 O_____________ hurdat_atl AL141971 26.6000 -67.9000 TD 25 -1 3 29
1971249N26289 1971 110 NA NA GINGER 1971-09-09 03:00:00 TS 26.7075 -67.8000 main 810 810 P_____________ AL141971 26.7075 -67.8000 TD 25 -1 3 42
1971249N26289 1971 110 NA NA GINGER 1971-09-09 06:00:00 TS 26.8000 -67.7000 25 hurdat_atl main 825 825 O_____________ hurdat_atl AL141971 26.8000 -67.7000 TD 25 -1 2 36
1971249N26289 1971 110 NA NA GINGER 1971-09-09 09:00:00 TS 26.8925 -67.6499 main 840 840 P_____________ AL141971 26.8925 -67.6499 TD 25 -1 2 25
1971249N26289 1971 110 NA NA GINGER 1971-09-09 12:00:00 TS 27.0000 -67.6000 25 1008 hurdat_atl main 848 848 O_____________ hurdat_atl AL141971 27.0000 -67.6000 TD 25 1008 -1 3 24
1971249N26289 1971 110 NA NA GINGER 1971-09-09 15:00:00 TS 27.1425 -67.5225 main 863 863 P_____________ AL141971 27.1425 -67.5225 TD 27 -1 4 30
1971249N26289 1971 110 NA NA GINGER 1971-09-09 18:00:00 TS 27.3000 -67.4000 30 hurdat_atl main 886 886 O_____________ hurdat_atl AL141971 27.3000 -67.4000 TD 30 -1 4 40
1971249N26289 1971 110 NA NA GINGER 1971-09-09 21:00:00 TS 27.4650 -67.2151 main 916 916 P_____________ AL141971 27.4650 -67.2151 TD 30 -1 5 50
1971249N26289 1971 110 NA NA GINGER 1971-09-10 00:00:00 TS 27.6000 -67.0000 30 hurdat_atl main 937 937 O_____________ hurdat_atl AL141971 27.6000 -67.0000 TD 30 -1 4 60
1971249N26289 1971 110 NA NA GINGER 1971-09-10 03:00:00 TS 27.6724 -66.8074 main 959 959 P_____________ AL141971 27.6724 -66.8074 TD 30 -1 4 74
1971249N26289 1971 110 NA NA GINGER 1971-09-10 06:00:00 TS 27.7000 -66.6000 30 hurdat_atl main 969 969 O_____________ hurdat_atl AL141971 27.7000 -66.6000 TD 30 -1 4 85
1971249N26289 1971 110 NA NA GINGER 1971-09-10 09:00:00 TS 27.7074 -66.3650 main 976 976 P_____________ AL141971 27.7074 -66.3650 TD 35 0 4 90
1971249N26289 1971 110 NA NA GINGER 1971-09-10 12:00:00 TS 27.7000 -66.1000 40 1003 hurdat_atl main 988 988 O_____________ hurdat_atl AL141971 27.7000 -66.1000 TS 40 1003 0 5 91
1971249N26289 1971 110 NA NA GINGER 1971-09-10 15:00:00 TS 27.7000 -65.8000 main 1000 1000 P_____________ AL141971 27.7000 -65.8000 TS 42 0 5 90
1971249N26289 1971 110 NA NA GINGER 1971-09-10 18:00:00 TS 27.7000 -65.5000 45 hurdat_atl main 1014 1014 O_____________ hurdat_atl AL141971 27.7000 -65.5000 TS 45 0 5 91
1971249N26289 1971 110 NA NA GINGER 1971-09-10 21:00:00 TS 27.6923 -65.2649 main 1023 1023 P_____________ AL141971 27.6923 -65.2649 TS 47 0 4 90
1971249N26289 1971 110 NA NA GINGER 1971-09-11 00:00:00 TS 27.7000 -65.0000 50 hurdat_atl main 1035 1035 O_____________ hurdat_atl AL141971 27.7000 -65.0000 TS 50 0 6 85
1971249N26289 1971 110 NA NA GINGER 1971-09-11 03:00:00 TS 27.7425 -64.6300 main 1044 1044 P_____________ AL141971 27.7425 -64.6300 TS 52 0 7 82
1971249N26289 1971 110 NA NA GINGER 1971-09-11 06:00:00 TS 27.8000 -64.2000 55 hurdat_atl main 1060 1060 O_____________ hurdat_atl AL141971 27.8000 -64.2000 TS 55 0 8 84
1971249N26289 1971 110 NA NA GINGER 1971-09-11 09:00:00 TS 27.8274 -63.7572 main 1066 1066 P_____________ AL141971 27.8274 -63.7572 TS 60 0 8 83
1971249N26289 1971 110 NA NA GINGER 1971-09-11 12:00:00 TS 27.9000 -63.3000 65 991 hurdat_atl main 1087 1087 O_____________ hurdat_atl AL141971 27.9000 -63.3000 HU 65 991 1 8 74
1971249N26289 1971 110 NA NA GINGER 1971-09-11 15:00:00 TS 28.0624 -62.8425 main 1121 1121 P_____________ AL141971 28.0624 -62.8425 HU 65 1 9 63
1971249N26289 1971 110 NA NA GINGER 1971-09-11 18:00:00 TS 28.3000 -62.4000 65 hurdat_atl main 1153 1153 O_____________ hurdat_atl AL141971 28.3000 -62.4000 HU 65 1 9 55
1971249N26289 1971 110 NA NA GINGER 1971-09-11 21:00:00 TS 28.5772 -61.9997 main 1197 1197 P_____________ AL141971 28.5772 -61.9997 HU 67 1 9 49
1971249N26289 1971 110 NA NA GINGER 1971-09-12 00:00:00 TS 28.9000 -61.6000 70 hurdat_atl main 1241 1241 O_____________ hurdat_atl AL141971 28.9000 -61.6000 HU 70 1 10 48
1971249N26289 1971 110 NA NA GINGER 1971-09-12 03:00:00 TS 29.2425 -61.1499 main 1290 1290 P_____________ AL141971 29.2425 -61.1499 HU 72 1 11 48
1971249N26289 1971 110 NA NA GINGER 1971-09-12 06:00:00 TS 29.6000 -60.7000 75 hurdat_atl main 1346 1346 O_____________ hurdat_atl AL141971 29.6000 -60.7000 HU 75 1 10 47
1971249N26289 1971 110 NA NA GINGER 1971-09-12 09:00:00 TS 29.9422 -60.2995 main 1392 1392 P_____________ AL141971 29.9422 -60.2995 HU 75 1 10 45
1971249N26289 1971 110 NA NA GINGER 1971-09-12 12:00:00 TS 30.3000 -59.9000 75 985 hurdat_atl main 1448 1448 O_____________ hurdat_atl AL141971 30.3000 -59.9000 HU 75 985 1 11 44
1971249N26289 1971 110 NA NA GINGER 1971-09-12 15:00:00 TS 30.7075 -59.4501 main 1505 1487 P_____________ AL141971 30.7075 -59.4501 HU 77 1 11 44
1971249N26289 1971 110 NA NA GINGER 1971-09-12 18:00:00 TS 31.1000 -59.0000 80 hurdat_atl main 1487 1466 O_____________ hurdat_atl AL141971 31.1000 -59.0000 HU 80 1 10 46
1971249N26289 1971 110 NA NA GINGER 1971-09-12 21:00:00 TS 31.4146 -58.6068 main 1469 1449 P_____________ AL141971 31.4146 -58.6068 HU 80 1 9 49
1971249N26289 1971 110 NA NA GINGER 1971-09-13 00:00:00 TS 31.7000 -58.2000 80 hurdat_atl main 1453 1438 O_____________ hurdat_atl AL141971 31.7000 -58.2000 HU 80 1 10 51
1971249N26289 1971 110 NA NA GINGER 1971-09-13 03:00:00 TS 32.0149 -57.7225 main 1442 1428 P_____________ AL141971 32.0149 -57.7225 HU 82 1 10 55
1971249N26289 1971 110 NA NA GINGER 1971-09-13 06:00:00 TS 32.3000 -57.2000 85 hurdat_atl main 1432 1427 O_____________ hurdat_atl AL141971 32.3000 -57.2000 HU 85 2 10 60
1971249N26289 1971 110 NA NA GINGER 1971-09-13 09:00:00 TS 32.5223 -56.6646 main 1435 1430 P_____________ AL141971 32.5223 -56.6646 HU 85 2 10 67
1971249N26289 1971 110 NA NA GINGER 1971-09-13 12:00:00 TS 32.7000 -56.1000 85 hurdat_atl main 1443 1443 O_____________ hurdat_atl AL141971 32.7000 -56.1000 HU 85 2 10 71
1971249N26289 1971 110 NA NA GINGER 1971-09-13 15:00:00 TS 32.8568 -55.5370 main 1450 1450 P_____________ AL141971 32.8568 -55.5370 HU 87 2 11 73
1971249N26289 1971 110 NA NA GINGER 1971-09-13 18:00:00 TS 33.0000 -54.9000 90 959 hurdat_atl main 1457 1457 O_____________ hurdat_atl AL141971 33.0000 -54.9000 HU 90 959 2 13 77
1971249N26289 1971 110 NA NA GINGER 1971-09-13 21:00:00 TS 33.1511 -54.0553 main 1463 1463 P_____________ AL141971 33.1511 -54.0553 HU 92 2 14 77
1971249N26289 1971 110 NA NA GINGER 1971-09-14 00:00:00 TS 33.3000 -53.3000 95 hurdat_atl main 1480 1457 O_____________ hurdat_atl AL141971 33.3000 -53.3000 HU 95 2 9 69
1971249N26289 1971 110 NA NA GINGER 1971-09-14 03:00:00 TS 33.4618 -53.0742 main 1457 1446 P_____________ AL141971 33.4618 -53.0742 HU 92 2 6 59
1971249N26289 1971 110 NA NA GINGER 1971-09-14 06:00:00 TS 33.6000 -52.7000 90 hurdat_atl main 1447 1437 O_____________ hurdat_atl AL141971 33.6000 -52.7000 HU 90 2 13 79
1971249N26289 1971 110 NA NA GINGER 1971-09-14 09:00:00 TS 33.7063 -51.4912 main 1442 1442 P_____________ AL141971 33.7063 -51.4912 HU 87 2 22 87
1971249N26289 1971 110 NA NA GINGER 1971-09-14 12:00:00 TS 33.7000 -50.1000 85 hurdat_atl main 1459 1459 O_____________ hurdat_atl AL141971 33.7000 -50.1000 HU 85 2 21 95
1971249N26289 1971 110 NA NA GINGER 1971-09-14 15:00:00 TS 33.5297 -48.9959 main 1500 1500 P_____________ AL141971 33.5297 -48.9959 HU 82 1 16 105
1971249N26289 1971 110 NA NA GINGER 1971-09-14 18:00:00 TS 33.3000 -48.3000 80 964 hurdat_atl main 1536 1536 O_____________ hurdat_atl AL141971 33.3000 -48.3000 HU 80 964 1 8 121
1971249N26289 1971 110 NA NA GINGER 1971-09-14 21:00:00 TS 33.1265 -48.1934 main 1560 1558 P_____________ AL141971 33.1265 -48.1934 HU 77 1 3 194
1971249N26289 1971 110 NA NA GINGER 1971-09-15 00:00:00 TS 33.0000 -48.4000 75 hurdat_atl main 1567 1564 O_____________ hurdat_atl AL141971 33.0000 -48.4000 HU 75 1 3 236
1971249N26289 1971 110 NA NA GINGER 1971-09-15 03:00:00 TS 32.9350 -48.5275 main 1575 1571 P_____________ AL141971 32.9350 -48.5275 HU 75 1 3 248
1971249N26289 1971 110 NA NA GINGER 1971-09-15 06:00:00 TS 32.9000 -48.7000 75 hurdat_atl main 1571 1567 O_____________ hurdat_atl AL141971 32.9000 -48.7000 HU 75 1 3 255
1971249N26289 1971 110 NA NA GINGER 1971-09-15 09:00:00 TS 32.8500 -48.9000 main 1567 1567 P_____________ AL141971 32.8500 -48.9000 HU 72 1 4 253
1971249N26289 1971 110 NA NA GINGER 1971-09-15 12:00:00 TS 32.8000 -49.1000 70 981 hurdat_atl main 1574 1572 O_____________ hurdat_atl AL141971 32.8000 -49.1000 HU 70 981 1 3 251
1971249N26289 1971 110 NA NA GINGER 1971-09-15 15:00:00 TS 32.7425 -49.2650 main 1581 1580 P_____________ AL141971 32.7425 -49.2650 HU 70 1 3 248
1971249N26289 1971 110 NA NA GINGER 1971-09-15 18:00:00 TS 32.7000 -49.4000 70 hurdat_atl main 1580 1578 O_____________ hurdat_atl AL141971 32.7000 -49.4000 HU 70 1 2 256
1971249N26289 1971 110 NA NA GINGER 1971-09-15 21:00:00 TS 32.6925 -49.5075 main 1578 1576 P_____________ AL141971 32.6925 -49.5075 HU 70 1 2 270
1971249N26289 1971 110 NA NA GINGER 1971-09-16 00:00:00 TS 32.7000 -49.6000 70 hurdat_atl main 1576 1575 O_____________ hurdat_atl AL141971 32.7000 -49.6000 HU 70 1 2 273
1971249N26289 1971 110 NA NA GINGER 1971-09-16 03:00:00 TS 32.7000 -49.6925 main 1575 1573 P_____________ AL141971 32.7000 -49.6925 HU 70 1 2 270
1971249N26289 1971 110 NA NA GINGER 1971-09-16 06:00:00 TS 32.7000 -49.8000 70 hurdat_atl main 1573 1572 O_____________ hurdat_atl AL141971 32.7000 -49.8000 HU 70 1 2 270
1971249N26289 1971 110 NA NA GINGER 1971-09-16 09:00:00 TS 32.7000 -49.9350 main 1572 1569 P_____________ AL141971 32.7000 -49.9350 HU 67 1 3 270
1971249N26289 1971 110 NA NA GINGER 1971-09-16 12:00:00 TS 32.7000 -50.1000 65 987 hurdat_atl main 1569 1566 O_____________ hurdat_atl AL141971 32.7000 -50.1000 HU 65 987 1 3 270
1971249N26289 1971 110 NA NA GINGER 1971-09-16 15:00:00 TS 32.7000 -50.2850 main 1566 1563 P_____________ AL141971 32.7000 -50.2850 HU 65 987 1 3 270
1971249N26289 1971 110 NA NA GINGER 1971-09-16 18:00:00 TS 32.7000 -50.5000 65 hurdat_atl main 1563 1561 I_____________ hurdat_atl AL141971 32.7000 -50.5000 HU 65 987 1 4 270
1971249N26289 1971 110 NA NA GINGER 1971-09-16 21:00:00 TS 32.7000 -50.7425 main 1561 1558 P_____________ AL141971 32.7000 -50.7425 HU 65 987 1 4 270
1971249N26289 1971 110 NA NA GINGER 1971-09-17 00:00:00 TS 32.7000 -51.0000 65 987 hurdat_atl main 1558 1556 O_____________ hurdat_atl AL141971 32.7000 -51.0000 HU 65 987 1 4 270
1971249N26289 1971 110 NA NA GINGER 1971-09-17 03:00:00 TS 32.7000 -51.2575 main 1555 1553 P_____________ AL141971 32.7000 -51.2575 HU 65 988 1 4 270
1971249N26289 1971 110 NA NA GINGER 1971-09-17 06:00:00 TS 32.7000 -51.5000 65 hurdat_atl main 1553 1552 I_____________ hurdat_atl AL141971 32.7000 -51.5000 HU 65 989 1 4 271
1971249N26289 1971 110 NA NA GINGER 1971-09-17 09:00:00 TS 32.7075 -51.7150 main 1552 1550 P_____________ AL141971 32.7075 -51.7150 HU 65 990 1 3 270
1971249N26289 1971 110 NA NA GINGER 1971-09-17 12:00:00 TS 32.7000 -51.9000 65 992 hurdat_atl main 1550 1549 O_____________ hurdat_atl AL141971 32.7000 -51.9000 HU 65 992 1 3 260
1971249N26289 1971 110 NA NA GINGER 1971-09-17 15:00:00 TS 32.6575 -52.0650 main 1549 1549 P_____________ AL141971 32.6575 -52.0650 HU 65 1 3 248
1971249N26289 1971 110 NA NA GINGER 1971-09-17 18:00:00 TS 32.6000 -52.2000 65 hurdat_atl main 1560 1560 O_____________ hurdat_atl AL141971 32.6000 -52.2000 HU 65 1 2 244
1971249N26289 1971 110 NA NA GINGER 1971-09-17 21:00:00 TS 32.5575 -52.3075 main 1560 1560 P_____________ AL141971 32.5575 -52.3075 HU 65 1 2 239
1971249N26289 1971 110 NA NA GINGER 1971-09-18 00:00:00 TS 32.5000 -52.4000 65 hurdat_atl main 1570 1570 O_____________ hurdat_atl AL141971 32.5000 -52.4000 HU 65 1 2 227
1971249N26289 1971 110 NA NA GINGER 1971-09-18 03:00:00 TS 32.4075 -52.5000 main 1581 1581 P_____________ AL141971 32.4075 -52.5000 HU 65 1 3 220
1971249N26289 1971 110 NA NA GINGER 1971-09-18 06:00:00 TS 32.3000 -52.6000 65 hurdat_atl main 1592 1592 O_____________ hurdat_atl AL141971 32.3000 -52.6000 HU 65 1 3 222
1971249N26289 1971 110 NA NA GINGER 1971-09-18 09:00:00 TS 32.2075 -52.7150 main 1603 1603 P_____________ AL141971 32.2075 -52.7150 HU 65 1 3 220
1971249N26289 1971 110 NA NA GINGER 1971-09-18 12:00:00 TS 32.1000 -52.8000 65 hurdat_atl main 1614 1614 O_____________ hurdat_atl AL141971 32.1000 -52.8000 HU 65 1 3 202
1971249N26289 1971 110 NA NA GINGER 1971-09-18 15:00:00 TS 31.9650 -52.8300 main 1625 1625 P_____________ AL141971 31.9650 -52.8300 HU 65 1 3 0
1971249N26289 1971 110 NA NA GINGER 1971-09-18 18:00:00 TS 31.8000 -52.8000 65 hurdat_atl main 1647 1647 O_____________ hurdat_atl AL141971 31.8000 -52.8000 HU 65 1 4 166
1971249N26289 1971 110 NA NA GINGER 1971-09-18 21:00:00 TS 31.6075 -52.7300 main 1670 1670 P_____________ AL141971 31.6075 -52.7300 HU 65 1 4 157
1971249N26289 1971 110 NA NA GINGER 1971-09-19 00:00:00 TS 31.4000 -52.6000 65 hurdat_atl main 1692 1692 O_____________ hurdat_atl AL141971 31.4000 -52.6000 HU 65 1 5 149
1971249N26289 1971 110 NA NA GINGER 1971-09-19 03:00:00 TS 31.1700 -52.4223 main 1715 1715 P_____________ AL141971 31.1700 -52.4223 HU 65 1 5 139
1971249N26289 1971 110 NA NA GINGER 1971-09-19 06:00:00 TS 31.0000 -52.2000 65 hurdat_atl main 1738 1738 O_____________ hurdat_atl AL141971 31.0000 -52.2000 HU 65 1 5 117
1971249N26289 1971 110 NA NA GINGER 1971-09-19 09:00:00 TS 30.9551 -51.9277 main 1740 1740 P_____________ AL141971 30.9551 -51.9277 HU 65 1 4 90
1971249N26289 1971 110 NA NA GINGER 1971-09-19 12:00:00 TS 31.0000 -51.7000 65 987 hurdat_atl main 1741 1730 O_____________ hurdat_atl AL141971 31.0000 -51.7000 HU 65 987 1 3 65
1971249N26289 1971 110 NA NA GINGER 1971-09-19 15:00:00 TS 31.0849 -51.6050 main 1730 1719 P_____________ AL141971 31.0849 -51.6050 HU 65 1 2 25
1971249N26289 1971 110 NA NA GINGER 1971-09-19 18:00:00 TS 31.2000 -51.6000 65 hurdat_atl main 1719 1708 O_____________ hurdat_atl AL141971 31.2000 -51.6000 HU 65 1 2 353
1971249N26289 1971 110 NA NA GINGER 1971-09-19 21:00:00 TS 31.3000 -51.6350 main 1708 1696 P_____________ AL141971 31.3000 -51.6350 HU 65 1 2 335
1971249N26289 1971 110 NA NA GINGER 1971-09-20 00:00:00 TS 31.4000 -51.7000 65 hurdat_atl main 1696 1685 O_____________ hurdat_atl AL141971 31.4000 -51.7000 HU 65 1 2 336
1971249N26289 1971 110 NA NA GINGER 1971-09-20 03:00:00 TS 31.5075 -51.7425 main 1685 1674 P_____________ AL141971 31.5075 -51.7425 HU 65 1 2 335
1971249N26289 1971 110 NA NA GINGER 1971-09-20 06:00:00 TS 31.6000 -51.8000 65 hurdat_atl main 1674 1662 O_____________ hurdat_atl AL141971 31.6000 -51.8000 HU 65 1 2 324
1971249N26289 1971 110 NA NA GINGER 1971-09-20 09:00:00 TS 31.6575 -51.8775 main 1662 1661 P_____________ AL141971 31.6575 -51.8775 HU 65 1 2 300
1971249N26289 1971 110 NA NA GINGER 1971-09-20 12:00:00 TS 31.7000 -52.0000 65 hurdat_atl main 1661 1649 O_____________ hurdat_atl AL141971 31.7000 -52.0000 HU 65 1 3 293
1971249N26289 1971 110 NA NA GINGER 1971-09-20 15:00:00 TS 31.7649 -52.1699 main 1649 1648 P_____________ AL141971 31.7649 -52.1699 HU 65 1 4 286
1971249N26289 1971 110 NA NA GINGER 1971-09-20 18:00:00 TS 31.8000 -52.4000 65 hurdat_atl main 1648 1648 O_____________ hurdat_atl AL141971 31.8000 -52.4000 HU 65 1 4 270
1971249N26289 1971 110 NA NA GINGER 1971-09-20 21:00:00 TS 31.7651 -52.6926 main 1648 1647 P_____________ AL141971 31.7651 -52.6926 HU 65 1 5 259
1971249N26289 1971 110 NA NA GINGER 1971-09-21 00:00:00 TS 31.7000 -53.0000 65 hurdat_atl main 1657 1650 O_____________ hurdat_atl AL141971 31.7000 -53.0000 HU 65 1 5 256
1971249N26289 1971 110 NA NA GINGER 1971-09-21 03:00:00 TS 31.6498 -53.2424 main 1660 1650 P_____________ AL141971 31.6498 -53.2424 HU 65 1 4 257
1971249N26289 1971 110 NA NA GINGER 1971-09-21 06:00:00 TS 31.6000 -53.5000 65 hurdat_atl main 1650 1640 O_____________ hurdat_atl AL141971 31.6000 -53.5000 HU 65 1 5 258
1971249N26289 1971 110 NA NA GINGER 1971-09-21 09:00:00 TS 31.5498 -53.8125 main 1650 1637 P_____________ AL141971 31.5498 -53.8125 HU 65 1 6 260
1971249N26289 1971 110 NA NA GINGER 1971-09-21 12:00:00 TS 31.5000 -54.2000 65 993 hurdat_atl main 1637 1625 O_____________ hurdat_atl AL141971 31.5000 -54.2000 HU 65 993 1 7 262
1971249N26289 1971 110 NA NA GINGER 1971-09-21 15:00:00 TS 31.4497 -54.6550 main 1632 1611 P_____________ AL141971 31.4497 -54.6550 HU 65 993 1 9 263
1971249N26289 1971 110 NA NA GINGER 1971-09-21 18:00:00 TS 31.4000 -55.2000 65 hurdat_atl main 1611 1588 I_____________ hurdat_atl AL141971 31.4000 -55.2000 HU 65 993 1 10 264
1971249N26289 1971 110 NA NA GINGER 1971-09-21 21:00:00 TS 31.3425 -55.8276 main 1593 1562 P_____________ AL141971 31.3425 -55.8276 HU 65 993 1 11 265
1971249N26289 1971 110 NA NA GINGER 1971-09-22 00:00:00 TS 31.3000 -56.5000 65 994 hurdat_atl main 1562 1536 O_____________ hurdat_atl AL141971 31.3000 -56.5000 HU 65 994 1 11 268
1971249N26289 1971 110 NA NA GINGER 1971-09-22 03:00:00 TS 31.2996 -57.1422 main 1536 1509 P_____________ AL141971 31.2996 -57.1422 HU 65 994 1 11 270
1971249N26289 1971 110 NA NA GINGER 1971-09-22 06:00:00 TS 31.3000 -57.8000 65 995 hurdat_atl main 1509 1483 O_____________ hurdat_atl AL141971 31.3000 -57.8000 HU 65 995 1 12 268
1971249N26289 1971 110 NA NA GINGER 1971-09-22 09:00:00 TS 31.2576 -58.5151 main 1483 1470 P_____________ AL141971 31.2576 -58.5151 HU 65 995 1 12 265
1971249N26289 1971 110 NA NA GINGER 1971-09-22 12:00:00 TS 31.2000 -59.2000 65 995 hurdat_atl main 1470 1455 O_____________ hurdat_atl AL141971 31.2000 -59.2000 HU 65 995 1 11 264
1971249N26289 1971 110 NA NA GINGER 1971-09-22 15:00:00 TS 31.1494 -59.7649 main 1462 1449 P_____________ AL141971 31.1494 -59.7649 HU 72 994 1 9 264
1971249N26289 1971 110 NA NA GINGER 1971-09-22 18:00:00 TS 31.1000 -60.3000 80 994 hurdat_atl main 1449 1431 O_____________ hurdat_atl AL141971 31.1000 -60.3000 HU 80 994 1 10 264
1971249N26289 1971 110 NA NA GINGER 1971-09-22 21:00:00 TS 31.0497 -60.8849 main 1440 1401 P_____________ AL141971 31.0497 -60.8849 HU 80 993 1 10 264
1971249N26289 1971 110 NA NA GINGER 1971-09-23 00:00:00 TS 31.0000 -61.5000 80 993 hurdat_atl main 1401 1350 O_____________ hurdat_atl AL141971 31.0000 -61.5000 HU 80 993 1 11 265
1971249N26289 1971 110 NA NA GINGER 1971-09-23 03:00:00 TS 30.9499 -62.1500 main 1355 1296 P_____________ AL141971 30.9499 -62.1500 HU 80 993 1 11 265
1971249N26289 1971 110 NA NA GINGER 1971-09-23 06:00:00 TS 30.9000 -62.8000 80 993 hurdat_atl main 1296 1246 O_____________ hurdat_atl AL141971 30.9000 -62.8000 HU 80 993 1 11 266
1971249N26289 1971 110 NA NA GINGER 1971-09-23 09:00:00 TS 30.8647 -63.4147 main 1246 1202 P_____________ AL141971 30.8647 -63.4147 HU 77 993 1 10 264
1971249N26289 1971 110 NA NA GINGER 1971-09-23 12:00:00 TS 30.8000 -64.0000 75 994 hurdat_atl main 1202 1167 O_____________ hurdat_atl AL141971 30.8000 -64.0000 HU 75 994 1 10 259
1971249N26289 1971 110 NA NA GINGER 1971-09-23 15:00:00 TS 30.6722 -64.5574 main 1159 1131 P_____________ AL141971 30.6722 -64.5574 HU 75 993 1 10 252
1971249N26289 1971 110 NA NA GINGER 1971-09-23 18:00:00 TS 30.5000 -65.1000 75 992 hurdat_atl main 1131 1105 O_____________ hurdat_atl AL141971 30.5000 -65.1000 HU 75 992 1 10 248
1971249N26289 1971 110 NA NA GINGER 1971-09-23 21:00:00 TS 30.2849 -65.6653 main 1097 1073 P_____________ AL141971 30.2849 -65.6653 HU 75 990 1 10 247
1971249N26289 1971 110 NA NA GINGER 1971-09-24 00:00:00 TS 30.1000 -66.2000 75 988 hurdat_atl main 1073 1043 O_____________ hurdat_atl AL141971 30.1000 -66.2000 HU 75 988 1 9 254
1971249N26289 1971 110 NA NA GINGER 1971-09-24 03:00:00 TS 30.0200 -66.7022 main 1043 1014 P_____________ AL141971 30.0200 -66.7022 HU 75 987 1 8 263
1971249N26289 1971 110 NA NA GINGER 1971-09-24 06:00:00 TS 30.0000 -67.1000 75 986 hurdat_atl main 1014 1000 O_____________ hurdat_atl AL141971 30.0000 -67.1000 HU 75 986 1 6 268
1971249N26289 1971 110 NA NA GINGER 1971-09-24 09:00:00 TS 29.9998 -67.3449 main 1000 986 P_____________ AL141971 29.9998 -67.3449 HU 72 989 1 3 270
1971249N26289 1971 110 NA NA GINGER 1971-09-24 12:00:00 TS 30.0000 -67.5000 70 993 hurdat_atl main 986 979 O_____________ hurdat_atl AL141971 30.0000 -67.5000 HU 70 993 1 3 261
1971249N26289 1971 110 NA NA GINGER 1971-09-24 15:00:00 TS 29.9574 -67.6500 main 972 971 P_____________ AL141971 29.9574 -67.6500 HU 70 990 1 3 249
1971249N26289 1971 110 NA NA GINGER 1971-09-24 18:00:00 TS 29.9000 -67.8000 70 988 hurdat_atl main 971 956 O_____________ hurdat_atl AL141971 29.9000 -67.8000 HU 70 988 1 3 252
1971249N26289 1971 110 NA NA GINGER 1971-09-24 21:00:00 TS 29.8576 -68.0075 main 956 948 P_____________ AL141971 29.8576 -68.0075 HU 70 984 1 4 254
1971249N26289 1971 110 NA NA GINGER 1971-09-25 00:00:00 TS 29.8000 -68.2000 70 980 hurdat_atl main 948 940 O_____________ hurdat_atl AL141971 29.8000 -68.2000 HU 70 980 1 3 241
1971249N26289 1971 110 NA NA GINGER 1971-09-25 03:00:00 TS 29.7075 -68.3225 main 947 940 P_____________ AL141971 29.7075 -68.3225 HU 70 980 1 3 221
1971249N26289 1971 110 NA NA GINGER 1971-09-25 06:00:00 TS 29.6000 -68.4000 70 981 hurdat_atl main 947 947 O_____________ hurdat_atl AL141971 29.6000 -68.4000 HU 70 981 1 2 209
1971249N26289 1971 110 NA NA GINGER 1971-09-25 09:00:00 TS 29.5000 -68.4575 main 947 947 P_____________ AL141971 29.5000 -68.4575 HU 72 982 1 2 205
1971249N26289 1971 110 NA NA GINGER 1971-09-25 12:00:00 TS 29.4000 -68.5000 75 984 hurdat_atl main 955 955 O_____________ hurdat_atl AL141971 29.4000 -68.5000 HU 75 984 1 2 204
1971249N26289 1971 110 NA NA GINGER 1971-09-25 15:00:00 TS 29.3150 -68.5424 main 962 955 P_____________ AL141971 29.3150 -68.5424 HU 75 982 1 2 205
1971249N26289 1971 110 NA NA GINGER 1971-09-25 18:00:00 TS 29.2000 -68.6000 75 980 hurdat_atl main 963 963 O_____________ hurdat_atl AL141971 29.2000 -68.6000 HU 75 980 1 3 203
1971249N26289 1971 110 NA NA GINGER 1971-09-25 21:00:00 TS 29.0150 -68.6925 main 971 948 P_____________ AL141971 29.0150 -68.6925 HU 75 978 1 4 204
1971249N26289 1971 110 NA NA GINGER 1971-09-26 00:00:00 TS 28.8000 -68.8000 75 976 hurdat_atl main 948 924 O_____________ hurdat_atl AL141971 28.8000 -68.8000 HU 75 976 1 5 202
1971249N26289 1971 110 NA NA GINGER 1971-09-26 03:00:00 TS 28.5850 -68.8925 main 924 899 P_____________ AL141971 28.5850 -68.8925 HU 72 976 1 4 204
1971249N26289 1971 110 NA NA GINGER 1971-09-26 06:00:00 TS 28.4000 -69.0000 70 976 hurdat_atl main 899 885 O_____________ hurdat_atl AL141971 28.4000 -69.0000 HU 70 976 1 4 215
1971249N26289 1971 110 NA NA GINGER 1971-09-26 09:00:00 TS 28.2850 -69.1349 main 885 866 P_____________ AL141971 28.2850 -69.1349 HU 67 979 1 3 233
1971249N26289 1971 110 NA NA GINGER 1971-09-26 12:00:00 TS 28.2000 -69.3000 65 982 hurdat_atl main 866 848 O_____________ hurdat_atl AL141971 28.2000 -69.3000 HU 65 982 1 4 238
1971249N26289 1971 110 NA NA GINGER 1971-09-26 15:00:00 TS 28.0925 -69.4850 main 848 829 P_____________ AL141971 28.0925 -69.4850 HU 67 982 1 4 241
1971249N26289 1971 110 NA NA GINGER 1971-09-26 18:00:00 TS 28.0000 -69.7000 70 983 hurdat_atl main 829 807 O_____________ hurdat_atl AL141971 28.0000 -69.7000 HU 70 983 1 5 249
1971249N26289 1971 110 NA NA GINGER 1971-09-26 21:00:00 TS 27.9276 -69.9650 main 807 800 P_____________ AL141971 27.9276 -69.9650 HU 70 981 1 5 257
1971249N26289 1971 110 NA NA GINGER 1971-09-27 00:00:00 TS 27.9000 -70.2000 70 980 hurdat_atl main 800 796 O_____________ hurdat_atl AL141971 27.9000 -70.2000 HU 70 980 1 3 270
1971249N26289 1971 110 NA NA GINGER 1971-09-27 03:00:00 TS 27.9274 -70.3225 main 796 793 P_____________ AL141971 27.9274 -70.3225 HU 72 979 1 2 300
1971249N26289 1971 110 NA NA GINGER 1971-09-27 06:00:00 TS 28.0000 -70.4000 75 978 hurdat_atl main 803 803 O_____________ hurdat_atl AL141971 28.0000 -70.4000 HU 75 978 1 2 319
1971249N26289 1971 110 NA NA GINGER 1971-09-27 09:00:00 TS 28.0925 -70.4925 main 811 811 P_____________ AL141971 28.0925 -70.4925 HU 77 976 1 3 318
1971249N26289 1971 110 NA NA GINGER 1971-09-27 12:00:00 TS 28.2000 -70.6000 80 975 hurdat_atl main 812 803 O_____________ hurdat_atl AL141971 28.2000 -70.6000 HU 80 975 1 3 310
1971249N26289 1971 110 NA NA GINGER 1971-09-27 15:00:00 TS 28.2925 -70.7575 main 798 794 P_____________ AL141971 28.2925 -70.7575 HU 80 972 1 3 307
1971249N26289 1971 110 NA NA GINGER 1971-09-27 18:00:00 TS 28.4000 -70.9000 80 969 hurdat_atl main 794 790 O_____________ hurdat_atl AL141971 28.4000 -70.9000 HU 80 969 1 3 323
1971249N26289 1971 110 NA NA GINGER 1971-09-27 21:00:00 TS 28.5350 -70.9651 main 790 790 P_____________ AL141971 28.5350 -70.9651 HU 80 969 1 3 344
1971249N26289 1971 110 NA NA GINGER 1971-09-28 00:00:00 TS 28.7000 -71.0000 80 969 hurdat_atl main 801 801 O_____________ hurdat_atl AL141971 28.7000 -71.0000 HU 80 969 1 4 349
1971249N26289 1971 110 NA NA GINGER 1971-09-28 03:00:00 TS 28.8925 -71.0425 main 812 803 P_____________ AL141971 28.8925 -71.0425 HU 80 972 1 4 348
1971249N26289 1971 110 NA NA GINGER 1971-09-28 06:00:00 TS 29.1000 -71.1000 80 976 hurdat_atl main 805 781 O_____________ hurdat_atl AL141971 29.1000 -71.1000 HU 80 976 1 4 344
1971249N26289 1971 110 NA NA GINGER 1971-09-28 09:00:00 TS 29.2925 -71.1776 main 781 758 P_____________ AL141971 29.2925 -71.1776 HU 80 978 1 4 337
1971249N26289 1971 110 NA NA GINGER 1971-09-28 12:00:00 TS 29.5000 -71.3000 80 981 hurdat_atl main 758 728 O_____________ hurdat_atl AL141971 29.5000 -71.3000 HU 80 981 1 5 330
1971249N26289 1971 110 NA NA GINGER 1971-09-28 15:00:00 TS 29.7425 -71.4775 main 728 690 P_____________ AL141971 29.7425 -71.4775 HU 82 980 1 6 325
1971249N26289 1971 110 NA NA GINGER 1971-09-28 18:00:00 TS 30.0000 -71.7000 85 980 hurdat_atl main 690 661 O_____________ hurdat_atl AL141971 30.0000 -71.7000 HU 85 980 2 6 322
1971249N26289 1971 110 NA NA GINGER 1971-09-28 21:00:00 TS 30.2499 -71.9351 main 661 617 P_____________ AL141971 30.2499 -71.9351 HU 85 982 2 7 319
1971249N26289 1971 110 NA NA GINGER 1971-09-29 00:00:00 TS 30.5000 -72.2000 85 985 hurdat_atl main 617 581 O_____________ hurdat_atl AL141971 30.5000 -72.2000 HU 85 985 2 7 316
1971249N26289 1971 110 NA NA GINGER 1971-09-29 03:00:00 TS 30.7424 -72.4852 main 581 537 P_____________ AL141971 30.7424 -72.4852 HU 87 983 2 7 314
1971249N26289 1971 110 NA NA GINGER 1971-09-29 06:00:00 TS 31.0000 -72.8000 90 982 hurdat_atl main 537 493 O_____________ hurdat_atl AL141971 31.0000 -72.8000 HU 90 982 2 8 315
1971249N26289 1971 110 NA NA GINGER 1971-09-29 09:00:00 TS 31.2848 -73.1278 main 493 444 P_____________ AL141971 31.2848 -73.1278 HU 90 982 2 8 315
1971249N26289 1971 110 NA NA GINGER 1971-09-29 12:00:00 TS 31.6000 -73.5000 90 983 hurdat_atl main 444 394 O_____________ hurdat_atl AL141971 31.6000 -73.5000 HU 90 983 2 10 313
1971249N26289 1971 110 NA NA GINGER 1971-09-29 15:00:00 TS 31.9502 -73.9572 main 379 330 P_____________ AL141971 31.9502 -73.9572 HU 90 984 2 10 312
1971249N26289 1971 110 NA NA GINGER 1971-09-29 18:00:00 TS 32.3000 -74.4000 90 985 hurdat_atl main 330 287 O_____________ hurdat_atl AL141971 32.3000 -74.4000 HU 90 985 2 9 315
1971249N26289 1971 110 NA NA GINGER 1971-09-29 21:00:00 TS 32.6073 -74.7304 main 287 243 P_____________ AL141971 32.6073 -74.7304 HU 87 986 2 8 320
1971249N26289 1971 110 NA NA GINGER 1971-09-30 00:00:00 TS 32.9000 -75.0000 85 988 hurdat_atl main 243 205 O_____________ hurdat_atl AL141971 32.9000 -75.0000 HU 85 988 2 7 324
1971249N26289 1971 110 NA NA GINGER 1971-09-30 03:00:00 TS 33.2074 -75.2577 main 200 162 P_____________ AL141971 33.2074 -75.2577 HU 82 986 1 7 325
1971249N26289 1971 110 NA NA GINGER 1971-09-30 06:00:00 TS 33.5000 -75.5000 80 985 hurdat_atl main 162 133 O_____________ hurdat_atl AL141971 33.5000 -75.5000 HU 80 985 1 7 323
1971249N26289 1971 110 NA NA GINGER 1971-09-30 09:00:00 TS 33.7574 -75.7502 main 119 90 P_____________ AL141971 33.7574 -75.7502 HU 77 985 1 7 320
1971249N26289 1971 110 NA NA GINGER 1971-09-30 12:00:00 TS 34.0000 -76.0000 75 985 hurdat_atl main 90 52 O_____________ hurdat_atl AL141971 34.0000 -76.0000 HU 75 985 1 7 321
1971249N26289 1971 110 NA NA GINGER 1971-09-30 15:00:00 TS 34.2724 -76.2499 main 52 22 P_____________ AL141971 34.2724 -76.2499 HU 70 984 1 6 320
1971249N26289 1971 110 NA NA GINGER 1971-09-30 18:00:00 TS 34.5000 -76.5000 65 984 hurdat_atl main 22 11 O_____________ hurdat_atl AL141971 34.5000 -76.5000 HU 65 984 1 5 311
1971249N26289 1971 110 NA NA GINGER 1971-09-30 21:00:00 TS 34.6299 -76.7502 main 11 0 P_____________ AL141971 34.6299 -76.7502 HU 62 987 0 5 296
1971249N26289 1971 110 NA NA GINGER 1971-10-01 00:00:00 TS 34.7000 -77.0000 60 991 hurdat_atl main 0 0 O_____________ hurdat_atl AL141971 34.7000 -77.0000 TS 60 991 0 4 287
1971249N26289 1971 110 NA NA GINGER 1971-10-01 03:00:00 TS 34.7575 -77.2501 main 0 0 P_____________ AL141971 34.7575 -77.2501 TS 57 994 0 4 284
1971249N26289 1971 110 NA NA GINGER 1971-10-01 06:00:00 TS 34.8000 -77.5000 55 997 hurdat_atl main 0 0 O_____________ hurdat_atl AL141971 34.8000 -77.5000 TS 55 997 0 4 280
1971249N26289 1971 110 NA NA GINGER 1971-10-01 09:00:00 TS 34.8351 -77.7726 main 0 0 P_____________ AL141971 34.8351 -77.7726 TS 50 998 0 4 284
1971249N26289 1971 110 NA NA GINGER 1971-10-01 12:00:00 TS 34.9000 -78.0000 45 1000 hurdat_atl main 0 0 O_____________ hurdat_atl AL141971 34.9000 -78.0000 TS 45 1000 0 4 303
1971249N26289 1971 110 NA NA GINGER 1971-10-01 15:00:00 TS 35.0274 -78.1300 main 0 0 P_____________ AL141971 35.0274 -78.1300 TS 37 1002 0 3 332
1971249N26289 1971 110 NA NA GINGER 1971-10-01 18:00:00 TS 35.2000 -78.2000 30 1004 hurdat_atl main 0 0 O_____________ hurdat_atl AL141971 35.2000 -78.2000 TD 30 1004 -1 4 342
1971249N26289 1971 110 NA NA GINGER 1971-10-01 21:00:00 TS 35.3775 -78.2724 main 0 0 P_____________ AL141971 35.3775 -78.2724 TD 30 -1 4 349
1971249N26289 1971 110 NA NA GINGER 1971-10-02 00:00:00 TS 35.6000 -78.3000 30 hurdat_atl main 0 0 O_____________ hurdat_atl AL141971 35.6000 -78.3000 TD 30 -1 5 3
1971249N26289 1971 110 NA NA GINGER 1971-10-02 03:00:00 TS 35.8850 -78.2651 main 0 0 P_____________ AL141971 35.8850 -78.2651 TD 30 -1 6 8
1971249N26289 1971 110 NA NA GINGER 1971-10-02 06:00:00 TS 36.2000 -78.2000 30 hurdat_atl main 0 0 O_____________ hurdat_atl AL141971 36.2000 -78.2000 TD 30 -1 6 7
1971249N26289 1971 110 NA NA GINGER 1971-10-02 09:00:00 TS 36.5149 -78.1723 main 0 0 P_____________ AL141971 36.5149 -78.1723 TD 30 -1 6 8
1971249N26289 1971 110 NA NA GINGER 1971-10-02 12:00:00 TS 36.8000 -78.1000 30 hurdat_atl main 0 0 O_____________ hurdat_atl AL141971 36.8000 -78.1000 TD 30 -1 6 18
1971249N26289 1971 110 NA NA GINGER 1971-10-02 15:00:00 TS 37.0373 -77.9601 main 0 0 P_____________ AL141971 37.0373 -77.9601 TD 30 -1 5 39
1971249N26289 1971 110 NA NA GINGER 1971-10-02 18:00:00 TS 37.2000 -77.7000 30 hurdat_atl main 0 0 O_____________ hurdat_atl AL141971 37.2000 -77.7000 TD 30 -1 6 65
1971249N26289 1971 110 NA NA GINGER 1971-10-02 21:00:00 TS 37.2877 -77.2875 main 0 0 P_____________ AL141971 37.2877 -77.2875 TD 30 -1 7 82
1971249N26289 1971 110 NA NA GINGER 1971-10-03 00:00:00 TS 37.3000 -76.8000 30 hurdat_atl main 0 0 O_____________ hurdat_atl AL141971 37.3000 -76.8000 TD 30 -1 7 91
1971249N26289 1971 110 NA NA GINGER 1971-10-03 03:00:00 TS 37.2723 -76.3499 main 0 0 P_____________ AL141971 37.2723 -76.3499 TD 30 -1 7 98
1971249N26289 1971 110 NA NA GINGER 1971-10-03 06:00:00 ET 37.2000 -75.9000 30 1008 hurdat_atl main 0 0 O_____________ hurdat_atl AL141971 37.2000 -75.9000 EX 30 1008 -4 7 102
1971249N26289 1971 110 NA NA GINGER 1971-10-03 09:00:00 ET 37.1148 -75.4501 main 35 35 P_____________ AL141971 37.1148 -75.4501 EX 30 -4 7 106
1971249N26289 1971 110 NA NA GINGER 1971-10-03 12:00:00 ET 37.0000 -75.0000 30 hurdat_atl main 80 80 O_____________ hurdat_atl AL141971 37.0000 -75.0000 EX 30 -4 8 110
1971249N26289 1971 110 NA NA GINGER 1971-10-03 15:00:00 ET 36.8574 -74.5425 main 125 124 P_____________ AL141971 36.8574 -74.5425 EX 30 -4 8 113
1971249N26289 1971 110 NA NA GINGER 1971-10-03 18:00:00 ET 36.7000 -74.1000 30 hurdat_atl main 153 153 O_____________ hurdat_atl AL141971 36.7000 -74.1000 EX 30 -4 8 114
1971249N26289 1971 110 NA NA GINGER 1971-10-03 21:00:00 ET 36.5499 -73.6776 main 178 178 P_____________ AL141971 36.5499 -73.6776 EX 30 -4 7 115
1971249N26289 1971 110 NA NA GINGER 1971-10-04 00:00:00 ET 36.4000 -73.3000 30 hurdat_atl main 208 208 O_____________ hurdat_atl AL141971 36.4000 -73.3000 EX 30 -4 6 119
1971249N26289 1971 110 NA NA GINGER 1971-10-04 03:00:00 ET 36.2422 -72.9927 main 228 228 P_____________ AL141971 36.2422 -72.9927 EX 30 -4 6 122
1971249N26289 1971 110 NA NA GINGER 1971-10-04 06:00:00 ET 36.1000 -72.7000 30 hurdat_atl main 253 253 O_____________ hurdat_atl AL141971 36.1000 -72.7000 EX 30 -4 6 117
1971249N26289 1971 110 NA NA GINGER 1971-10-04 09:00:00 ET 35.9850 -72.3575 main 279 279 P_____________ AL141971 35.9850 -72.3575 EX 27 -4 6 109
1971249N26289 1971 110 NA NA GINGER 1971-10-04 12:00:00 ET 35.9000 -72.0000 25 hurdat_atl main 314 314 O_____________ hurdat_atl AL141971 35.9000 -72.0000 EX 25 -4 6 104
1971249N26289 1971 110 NA NA GINGER 1971-10-04 15:00:00 ET 35.8424 -71.6501 main 341 341 P_____________ AL141971 35.8424 -71.6501 EX 25 -4 6 100
1971249N26289 1971 110 NA NA GINGER 1971-10-04 18:00:00 ET 35.8000 -71.3000 25 hurdat_atl main 377 377 O_____________ hurdat_atl AL141971 35.8000 -71.3000 EX 25 -4 6 100
1971249N26289 1971 110 NA NA GINGER 1971-10-04 21:00:00 ET 35.7424 -70.9499 main 414 414 P_____________ AL141971 35.7424 -70.9499 EX 25 -4 6 100
1971249N26289 1971 110 NA NA GINGER 1971-10-05 00:00:00 ET 35.7000 -70.6000 25 hurdat_atl main 441 441 O_____________ hurdat_atl AL141971 35.7000 -70.6000 EX 25 -4 6 95
1971249N26289 1971 110 NA NA GINGER 1971-10-05 03:00:00 ET 35.6902 -70.2501 main 468 468 P_____________ AL141971 35.6902 -70.2501 EX 25 -4 6 90
1971249N26289 1971 110 NA NA GINGER 1971-10-05 06:00:00 ET 35.7000 -69.9000 25 hurdat_atl main 504 O_____________ hurdat_atl AL141971 35.7000 -69.9000 EX 25 -4 6 88

About IBTrACS Database

This database is a web-friendly format of International Best Track Archive for Climate Stewardship (IBTrACS), a global best track data archive curated by NOAA dating back to 1842.

Updated: 2021-10-21